Weather observations for the past three days for
John F Kennedy Memorial Airport
Imperial (Metric)
Date Time (cdt) Wind (mph) Vis. (mi.) Weather Sky Cond. Temperature (ºF) Relative Humidity Wind Chill (°F) Heat Index (°F) Pressure Precipitation (in)
Air Dwpt 6 hour altimeter (in) sea level (mb) 1 hr 3 hr 6 hr
Max. Min.
05 07:53 Calm 9.00 Overcast OVC003 66 66 100% 30.08 1018.6
05 06:53 N 3 6.00 Fog/Mist OVC002 64.9 64.9 66 64.9 100% 30.05 1017.5 0.03
05 05:53 N 8 5.00 Fog/Mist OVC002 64.9 64.9 100% 30.03 1016.9
05 04:53 N 8 2.00 Fog/Mist OVC002 64.9 64.9 100% 30.04 1017.1 0.01
05 02:53 N 7 2.50 Light Rain Fog/Mist OVC002 64.9 64.9 100% 30.04 1017.1
05 01:53 N 7 2.50 Light Rain Fog/Mist OVC002 64.9 64.9 100% 30.03 1016.7 0.01
05 00:53 N 8 4.00 Fog/Mist OVC003 64.9 64 66 64 97% 30.03 1016.9
04 23:53 N 5 3.00 Fog/Mist OVC003 64 64 100% 30.03 1016.8
04 22:53 N 3 2.50 Fog/Mist OVC003 64.9 64 97% 30.03 1016.8
04 21:53 N 6 4.00 Fog/Mist OVC004 64.9 64 97% 30.03 1016.8
04 20:53 N 6 7.00 Overcast OVC004 64.9 64 97% 30.02 1016.7
04 19:53 N 8 10.00 Overcast OVC005 64.9 64 97% 30.01 1016.0
04 18:53 NE 7 10.00 Overcast OVC005 66 64 72 66 93% 30 1015.8
04 17:53 N 9 10.00 Overcast OVC009 66.9 64 91% 29.99 1015.6
04 16:53 NE 13 10.00 Overcast OVC014 68 63 84% 29.99 1015.4
04 15:53 NE 9 10.00 Overcast OVC009 68 64 87% 29.98 1014.9
04 14:53 N 8 10.00 Overcast OVC010 69.1 64.9 87% 29.97 1014.8
04 13:53 NE 7 10.00 Overcast OVC008 71.1 66.9 87% 29.96 1014.3
04 12:53 N 12 10.00 Overcast OVC008 69.1 64.9 71.1 64.9 87% 29.95 1014.0
04 11:53 N 10 10.00 Overcast OVC005 69.1 66 90% 29.95 1013.9
04 10:53 N 9 10.00 Overcast OVC004 69.1 66.9 93% 29.94 1013.6
04 09:53 N 3 8.00 Overcast OVC004 69.1 66.9 93% 29.93 1013.2
04 08:53 N 6 5.00 Fog/Mist OVC002 66.9 66.9 100% 29.92 1012.9
04 07:53 N 7 7.00 Overcast OVC002 66 66 100% 29.9 1012.2
04 06:53 N 6 10.00 Overcast FEW002 OVC011 64.9 64 66 63 97% 29.88 1011.5 0.36
04 05:53 W 3 10.00 A Few Clouds FEW019 63 63 100% 29.86 1011.1
04 04:53 Calm 10.00 Overcast BKN005 OVC019 64 64 100% 29.87 1011.3 0.35
04 03:53 Vrbl 7 4.00 Thunderstorm Light Rain Fog/Mist OVC002 64.9 64 97% 29.89 1012.0 0.01 0.01
04 02:53 Calm 10.00 Overcast OVC003 64 64 100% 29.87 1011.4
04 01:53 NE 6 10.00 Overcast OVC004 64 63 96% 29.89 1012.1
04 00:53 NE 10 10.00 Overcast OVC002 64 63 68 64 96% 29.91 1012.7 0.01
03 23:53 NE 15 G 24 10.00 Thunderstorm in Vicinity FEW009 OVC019 64 62.1 93% 29.91 1012.6
03 22:53 N 13 G 24 10.00 Thunderstorm Light Rain FEW010 SCT024 OVC070 66 63 90% 29.9 1012.1 0.01
03 21:53 Calm 10.00 Overcast OVC080 66.9 63 87% 29.89 1012.0
03 20:53 N 7 10.00 Fair CLR 68 64 87% 29.88 1011.7
03 19:53 N 8 10.00 Overcast SCT070 OVC100 68 62.1 81% 29.89 1012.1
03 18:53 NE 12 G 21 10.00 Fair CLR 69.1 61 80.1 69.1 76% 29.89 1012.1
03 17:53 NE 16 10.00 Fair CLR 72 60.1 66% 29.89 1012.2
03 16:53 NE 14 10.00 A Few Clouds FEW075 73.9 61 64% 29.89 1012.1
03 15:53 NE 12 10.00 Overcast OVC050 73.9 61 64% 29.9 1012.4
03 14:53 N 12 10.00 Mostly Cloudy BKN050 75.9 63 64% 78 29.9 1012.3
03 13:53 N 13 10.00 Fair CLR 79 62.1 56% 80 29.9 1012.3
03 12:53 N 10 G 21 10.00 Mostly Cloudy BKN055 79 63 80.1 53.1 58% 81 29.92 1012.9
03 11:53 Calm 10.00 Partly Cloudy SCT055 78.1 62.1 58% 80 29.93 1013.4
03 10:53 NE 8 10.00 Mostly Cloudy SCT055 BKN070 75.9 63 64% 78 29.94 1013.6
03 09:53 Vrbl 5 10.00 Mostly Cloudy BKN090 73 60.1 64% 29.95 1014.0
03 08:53 NE 6 10.00 Fair CLR 69.1 59 70% 29.95 1014.3
03 07:53 E 3 10.00 Fair CLR 61 59 93% 29.95 1014.3
03 06:53 Calm 4.00 Fog/Mist CLR 53.1 53.1 55 51.1 100% 29.95 1014.2
03 05:53 Calm 0.50 Fog CLR 52 52 100% 29.94 1013.8
03 04:53 Calm 0.25 Fog VV002 53.1 53.1 100% 29.93 1013.5
03 03:53 Calm 4.00 Fog/Mist CLR 54 54 100% 29.93 1013.3
03 02:53 Calm 9.00 Fair CLR 55 55 100% 29.93 1013.5
03 01:53 Calm 0.50 Fog FEW120 54 54 100% 29.94 1013.8
03 00:53 SW 3 7.00 A Few Clouds FEW100 57 57 73.9 55 100% 29.95 1014.1
02 23:53 Calm 10.00 Fair CLR 55.9 55.9 100% 29.94 1013.9
02 22:53 Calm 10.00 Fair CLR 57.9 57.9 100% 29.94 1013.6
02 21:53 Calm 7.00 Fair CLR 61 61 100% 29.93 1013.5
02 20:53 Calm 10.00 Fair CLR 63 61 93% 29.93 1013.3
02 19:53 Calm 10.00 Fair CLR 66 62.1 87% 29.91 1012.9
02 18:53 NE 6 10.00 Fair CLR 73.9 57 82 73.9 56% 29.91 1012.8
02 17:53 E 8 10.00 Fair CLR 78.1 57 48% 79 29.9 1012.3
02 16:53 NE 6 10.00 Fair CLR 80.1 57.9 47% 81 29.89 1012.0
02 15:53 NE 8 10.00 Fair CLR 81 57.9 45% 81 29.9 1012.1
02 14:53 Calm 10.00 Fair CLR 82 59 46% 82 29.9 1012.4
02 13:53 N 10 10.00 Fair CLR 80.1 59 49% 81 29.91 1012.7
02 12:53 NW 6 10.00 Fair CLR 81 57 82 57 44% 81 29.92 1013.0
02 11:53 Calm 10.00 A Few Clouds FEW050 81 57 44% 81 29.92 1013.0
02 10:53 Calm 10.00 Fair CLR 78.1 59 52% 79 29.92 1013.1
02 09:53 S 5 10.00 Fair CLR 75 59 58% 77 29.93 1013.3
02 08:53 W 5 10.00 Fair CLR 71.1 59 66% 29.95 1013.9
Date Time (cdt) Wind (mph) Vis. (mi.) Weather Sky Cond. Air Dwpt Max. Min. Relative Humidity Wind Chill (°F) Heat Index (°F) altimeter (in) sea level (mb) 1 hr 3 hr 6 hr
6 hour
Temperature (ºF) Pressure Precipitation (in)